sensor_id;sensor_type;location;lat;lon;timestamp;P1;durP1;ratioP1;P2;durP2;ratioP2
81656;SDS011;71067;51.482;-0.580;2024-01-06T00:00:43;18.58;;;9.65;;
81656;SDS011;71067;51.482;-0.580;2024-01-06T00:03:09;18.23;;;9.52;;
81656;SDS011;71067;51.482;-0.580;2024-01-06T00:05:34;18.15;;;9.90;;
81656;SDS011;71067;51.482;-0.580;2024-01-06T00:07:59;18.00;;;10.13;;
81656;SDS011;71067;51.482;-0.580;2024-01-06T00:10:25;20.33;;;11.10;;
81656;SDS011;71067;51.482;-0.580;2024-01-06T00:12:51;20.50;;;10.68;;
81656;SDS011;71067;51.482;-0.580;2024-01-06T00:15:16;20.17;;;10.40;;
81656;SDS011;71067;51.482;-0.580;2024-01-06T00:17:42;19.73;;;10.52;;
81656;SDS011;71067;51.482;-0.580;2024-01-06T00:20:07;21.27;;;10.40;;
81656;SDS011;71067;51.482;-0.580;2024-01-06T00:22:33;21.90;;;10.82;;
81656;SDS011;71067;51.482;-0.580;2024-01-06T00:24:58;21.80;;;11.30;;
81656;SDS011;71067;51.482;-0.580;2024-01-06T00:27:24;20.38;;;10.18;;
81656;SDS011;71067;51.482;-0.580;2024-01-06T00:29:50;19.13;;;10.50;;
81656;SDS011;71067;51.482;-0.580;2024-01-06T00:32:15;20.92;;;11.07;;
81656;SDS011;71067;51.482;-0.580;2024-01-06T00:34:40;21.02;;;10.85;;
81656;SDS011;71067;51.482;-0.580;2024-01-06T00:37:06;18.55;;;10.57;;
81656;SDS011;71067;51.482;-0.580;2024-01-06T00:39:31;19.30;;;10.00;;
81656;SDS011;71067;51.482;-0.580;2024-01-06T00:41:56;21.23;;;11.30;;
81656;SDS011;71067;51.482;-0.580;2024-01-06T00:44:22;19.48;;;10.77;;
81656;SDS011;71067;51.482;-0.580;2024-01-06T00:46:47;18.30;;;10.57;;
81656;SDS011;71067;51.482;-0.580;2024-01-06T00:49:12;18.83;;;10.02;;
81656;SDS011;71067;51.482;-0.580;2024-01-06T00:51:38;20.70;;;9.80;;
81656;SDS011;71067;51.482;-0.580;2024-01-06T00:54:03;20.77;;;11.27;;
81656;SDS011;71067;51.482;-0.580;2024-01-06T00:56:28;18.30;;;9.32;;
81656;SDS011;71067;51.482;-0.580;2024-01-06T00:58:54;18.52;;;10.27;;
81656;SDS011;71067;51.482;-0.580;2024-01-06T01:01:19;18.60;;;9.93;;
81656;SDS011;71067;51.482;-0.580;2024-01-06T01:03:44;18.45;;;10.23;;
81656;SDS011;71067;51.482;-0.580;2024-01-06T01:06:10;18.42;;;9.35;;
81656;SDS011;71067;51.482;-0.580;2024-01-06T01:08:35;20.05;;;9.52;;
81656;SDS011;71067;51.482;-0.580;2024-01-06T01:11:00;20.10;;;10.10;;
81656;SDS011;71067;51.482;-0.580;2024-01-06T01:13:26;19.30;;;10.07;;
81656;SDS011;71067;51.482;-0.580;2024-01-06T01:15:51;20.83;;;10.95;;
81656;SDS011;71067;51.482;-0.580;2024-01-06T01:18:16;22.58;;;10.40;;
81656;SDS011;71067;51.482;-0.580;2024-01-06T01:20:42;22.20;;;10.80;;
81656;SDS011;71067;51.482;-0.580;2024-01-06T01:23:07;26.58;;;11.70;;
81656;SDS011;71067;51.482;-0.580;2024-01-06T01:25:33;21.83;;;10.63;;
81656;SDS011;71067;51.482;-0.580;2024-01-06T01:27:58;22.60;;;10.60;;
81656;SDS011;71067;51.482;-0.580;2024-01-06T01:30:24;20.92;;;10.35;;
81656;SDS011;71067;51.482;-0.580;2024-01-06T01:32:50;23.08;;;10.73;;
81656;SDS011;71067;51.482;-0.580;2024-01-06T01:35:15;22.48;;;11.10;;
81656;SDS011;71067;51.482;-0.580;2024-01-06T01:37:40;22.42;;;11.00;;
81656;SDS011;71067;51.482;-0.580;2024-01-06T01:40:06;21.92;;;10.13;;
81656;SDS011;71067;51.482;-0.580;2024-01-06T01:42:32;21.20;;;10.93;;
81656;SDS011;71067;51.482;-0.580;2024-01-06T01:44:58;21.77;;;11.07;;
81656;SDS011;71067;51.482;-0.580;2024-01-06T01:47:23;19.55;;;10.38;;
81656;SDS011;71067;51.482;-0.580;2024-01-06T01:49:48;21.00;;;10.82;;
81656;SDS011;71067;51.482;-0.580;2024-01-06T01:52:14;23.10;;;11.45;;
81656;SDS011;71067;51.482;-0.580;2024-01-06T01:54:40;22.73;;;10.98;;
81656;SDS011;71067;51.482;-0.580;2024-01-06T01:57:07;21.48;;;11.35;;
81656;SDS011;71067;51.482;-0.580;2024-01-06T01:59:33;20.38;;;10.63;;
81656;SDS011;71067;51.482;-0.580;2024-01-06T02:01:58;20.75;;;10.13;;
81656;SDS011;71067;51.482;-0.580;2024-01-06T02:04:24;19.92;;;10.85;;
81656;SDS011;71067;51.482;-0.580;2024-01-06T02:06:50;20.25;;;10.20;;
81656;SDS011;71067;51.482;-0.580;2024-01-06T02:09:15;20.07;;;10.30;;
81656;SDS011;71067;51.482;-0.580;2024-01-06T02:11:40;21.60;;;10.23;;
81656;SDS011;71067;51.482;-0.580;2024-01-06T02:14:06;21.65;;;10.52;;
81656;SDS011;71067;51.482;-0.580;2024-01-06T02:16:32;19.98;;;10.20;;
81656;SDS011;71067;51.482;-0.580;2024-01-06T02:18:57;19.75;;;10.00;;
81656;SDS011;71067;51.482;-0.580;2024-01-06T02:21:23;19.92;;;10.80;;
81656;SDS011;71067;51.482;-0.580;2024-01-06T02:23:49;20.30;;;10.20;;
81656;SDS011;71067;51.482;-0.580;2024-01-06T02:26:14;18.05;;;9.75;;
81656;SDS011;71067;51.482;-0.580;2024-01-06T02:28:40;18.50;;;9.60;;
81656;SDS011;71067;51.482;-0.580;2024-01-06T02:31:05;23.25;;;10.43;;
81656;SDS011;71067;51.482;-0.580;2024-01-06T02:33:31;17.73;;;10.32;;
81656;SDS011;71067;51.482;-0.580;2024-01-06T02:35:56;20.92;;;9.82;;
81656;SDS011;71067;51.482;-0.580;2024-01-06T02:38:21;19.47;;;9.60;;
81656;SDS011;71067;51.482;-0.580;2024-01-06T02:40:47;24.63;;;11.50;;
81656;SDS011;71067;51.482;-0.580;2024-01-06T02:43:12;18.73;;;9.93;;
81656;SDS011;71067;51.482;-0.580;2024-01-06T02:45:38;21.52;;;10.27;;
81656;SDS011;71067;51.482;-0.580;2024-01-06T02:48:03;17.98;;;10.25;;
81656;SDS011;71067;51.482;-0.580;2024-01-06T02:50:29;19.85;;;10.63;;
81656;SDS011;71067;51.482;-0.580;2024-01-06T02:52:54;22.57;;;11.20;;
81656;SDS011;71067;51.482;-0.580;2024-01-06T02:55:19;21.27;;;11.37;;
81656;SDS011;71067;51.482;-0.580;2024-01-06T02:57:45;20.38;;;10.93;;
81656;SDS011;71067;51.482;-0.580;2024-01-06T03:00:10;22.63;;;11.40;;
81656;SDS011;71067;51.482;-0.580;2024-01-06T03:02:37;19.23;;;10.30;;
81656;SDS011;71067;51.482;-0.580;2024-01-06T03:05:06;20.98;;;11.00;;
81656;SDS011;71067;51.482;-0.580;2024-01-06T03:07:32;21.58;;;10.82;;
81656;SDS011;71067;51.482;-0.580;2024-01-06T03:09:58;19.63;;;10.80;;
81656;SDS011;71067;51.482;-0.580;2024-01-06T03:12:23;21.33;;;10.47;;
81656;SDS011;71067;51.482;-0.580;2024-01-06T03:14:48;20.85;;;10.18;;
81656;SDS011;71067;51.482;-0.580;2024-01-06T03:17:14;20.02;;;9.75;;
81656;SDS011;71067;51.482;-0.580;2024-01-06T03:19:39;20.77;;;10.10;;
81656;SDS011;71067;51.482;-0.580;2024-01-06T03:22:04;22.17;;;11.00;;
81656;SDS011;71067;51.482;-0.580;2024-01-06T03:24:30;20.55;;;10.38;;
81656;SDS011;71067;51.482;-0.580;2024-01-06T03:26:56;20.08;;;9.75;;
81656;SDS011;71067;51.482;-0.580;2024-01-06T03:29:21;19.23;;;9.77;;
81656;SDS011;71067;51.482;-0.580;2024-01-06T03:31:46;17.87;;;9.57;;
81656;SDS011;71067;51.482;-0.580;2024-01-06T03:34:12;19.15;;;9.20;;
81656;SDS011;71067;51.482;-0.580;2024-01-06T03:36:38;19.00;;;9.05;;
81656;SDS011;71067;51.482;-0.580;2024-01-06T03:39:04;16.83;;;9.88;;
81656;SDS011;71067;51.482;-0.580;2024-01-06T03:41:29;19.42;;;10.40;;
81656;SDS011;71067;51.482;-0.580;2024-01-06T03:43:54;17.67;;;10.23;;
81656;SDS011;71067;51.482;-0.580;2024-01-06T03:46:20;16.23;;;9.27;;
81656;SDS011;71067;51.482;-0.580;2024-01-06T03:48:45;18.13;;;9.02;;
81656;SDS011;71067;51.482;-0.580;2024-01-06T03:51:11;17.17;;;10.00;;
81656;SDS011;71067;51.482;-0.580;2024-01-06T03:53:37;15.18;;;9.02;;
81656;SDS011;71067;51.482;-0.580;2024-01-06T03:56:03;16.10;;;8.40;;
81656;SDS011;71067;51.482;-0.580;2024-01-06T03:58:29;15.50;;;9.10;;
81656;SDS011;71067;51.482;-0.580;2024-01-06T04:00:54;15.27;;;8.48;;
81656;SDS011;71067;51.482;-0.580;2024-01-06T04:03:19;14.75;;;8.43;;
81656;SDS011;71067;51.482;-0.580;2024-01-06T04:05:44;15.37;;;8.60;;
81656;SDS011;71067;51.482;-0.580;2024-01-06T04:08:10;16.80;;;9.17;;
81656;SDS011;71067;51.482;-0.580;2024-01-06T04:10:35;16.20;;;8.37;;
81656;SDS011;71067;51.482;-0.580;2024-01-06T04:13:00;14.70;;;8.23;;
81656;SDS011;71067;51.482;-0.580;2024-01-06T04:15:26;14.87;;;9.10;;
81656;SDS011;71067;51.482;-0.580;2024-01-06T04:17:51;14.77;;;9.00;;
81656;SDS011;71067;51.482;-0.580;2024-01-06T04:20:17;15.90;;;8.80;;
81656;SDS011;71067;51.482;-0.580;2024-01-06T04:22:43;17.88;;;9.57;;
81656;SDS011;71067;51.482;-0.580;2024-01-06T04:25:09;16.80;;;9.30;;
81656;SDS011;71067;51.482;-0.580;2024-01-06T04:27:35;17.77;;;9.40;;
81656;SDS011;71067;51.482;-0.580;2024-01-06T04:30:00;18.13;;;9.23;;
81656;SDS011;71067;51.482;-0.580;2024-01-06T04:32:25;16.13;;;8.50;;
81656;SDS011;71067;51.482;-0.580;2024-01-06T04:34:50;14.23;;;8.80;;
81656;SDS011;71067;51.482;-0.580;2024-01-06T04:37:16;17.67;;;9.23;;
81656;SDS011;71067;51.482;-0.580;2024-01-06T04:39:41;19.83;;;9.37;;
81656;SDS011;71067;51.482;-0.580;2024-01-06T04:42:06;16.23;;;9.40;;
81656;SDS011;71067;51.482;-0.580;2024-01-06T04:44:32;16.65;;;9.38;;
81656;SDS011;71067;51.482;-0.580;2024-01-06T04:46:57;18.58;;;9.48;;
81656;SDS011;71067;51.482;-0.580;2024-01-06T04:49:22;18.40;;;9.15;;
81656;SDS011;71067;51.482;-0.580;2024-01-06T04:51:48;17.93;;;9.27;;
81656;SDS011;71067;51.482;-0.580;2024-01-06T04:54:13;18.73;;;9.43;;
81656;SDS011;71067;51.482;-0.580;2024-01-06T04:56:38;16.52;;;8.57;;
81656;SDS011;71067;51.482;-0.580;2024-01-06T04:59:04;19.08;;;9.68;;
81656;SDS011;71067;51.482;-0.580;2024-01-06T05:01:30;17.58;;;9.43;;
81656;SDS011;71067;51.482;-0.580;2024-01-06T05:03:55;17.35;;;9.55;;
81656;SDS011;71067;51.482;-0.580;2024-01-06T05:06:21;15.50;;;8.53;;
81656;SDS011;71067;51.482;-0.580;2024-01-06T05:08:47;14.50;;;7.15;;
81656;SDS011;71067;51.482;-0.580;2024-01-06T05:11:13;15.25;;;6.90;;
81656;SDS011;71067;51.482;-0.580;2024-01-06T05:13:38;10.15;;;5.13;;
81656;SDS011;71067;51.482;-0.580;2024-01-06T05:16:04;12.65;;;5.45;;
81656;SDS011;71067;51.482;-0.580;2024-01-06T05:18:29;10.73;;;5.32;;
81656;SDS011;71067;51.482;-0.580;2024-01-06T05:20:54;12.00;;;5.85;;
81656;SDS011;71067;51.482;-0.580;2024-01-06T05:23:20;10.95;;;5.63;;
81656;SDS011;71067;51.482;-0.580;2024-01-06T05:25:45;12.57;;;6.72;;
81656;SDS011;71067;51.482;-0.580;2024-01-06T05:28:11;15.82;;;6.10;;
81656;SDS011;71067;51.482;-0.580;2024-01-06T05:30:36;11.63;;;5.90;;
81656;SDS011;71067;51.482;-0.580;2024-01-06T05:33:01;11.83;;;5.87;;
81656;SDS011;71067;51.482;-0.580;2024-01-06T05:35:28;14.77;;;6.53;;
81656;SDS011;71067;51.482;-0.580;2024-01-06T05:37:53;10.97;;;5.70;;
81656;SDS011;71067;51.482;-0.580;2024-01-06T05:40:18;12.37;;;5.97;;
81656;SDS011;71067;51.482;-0.580;2024-01-06T05:42:44;11.77;;;5.27;;
81656;SDS011;71067;51.482;-0.580;2024-01-06T05:45:12;12.73;;;5.25;;
81656;SDS011;71067;51.482;-0.580;2024-01-06T05:47:40;12.77;;;6.13;;
81656;SDS011;71067;51.482;-0.580;2024-01-06T05:50:05;12.88;;;6.10;;
81656;SDS011;71067;51.482;-0.580;2024-01-06T05:52:34;10.05;;;5.63;;
81656;SDS011;71067;51.482;-0.580;2024-01-06T05:54:59;12.43;;;5.13;;
81656;SDS011;71067;51.482;-0.580;2024-01-06T05:57:24;12.67;;;5.87;;
81656;SDS011;71067;51.482;-0.580;2024-01-06T05:59:50;14.27;;;5.45;;
81656;SDS011;71067;51.482;-0.580;2024-01-06T06:02:16;12.10;;;5.10;;
81656;SDS011;71067;51.482;-0.580;2024-01-06T06:04:41;11.65;;;6.00;;
81656;SDS011;71067;51.482;-0.580;2024-01-06T06:07:06;11.18;;;5.03;;
81656;SDS011;71067;51.482;-0.580;2024-01-06T06:09:32;10.63;;;4.93;;
81656;SDS011;71067;51.482;-0.580;2024-01-06T06:11:59;10.88;;;4.72;;
81656;SDS011;71067;51.482;-0.580;2024-01-06T06:14:24;8.32;;;4.32;;
81656;SDS011;71067;51.482;-0.580;2024-01-06T06:16:50;9.18;;;4.57;;
81656;SDS011;71067;51.482;-0.580;2024-01-06T06:19:15;7.23;;;4.07;;
81656;SDS011;71067;51.482;-0.580;2024-01-06T06:21:42;10.77;;;4.15;;
81656;SDS011;71067;51.482;-0.580;2024-01-06T06:24:08;9.90;;;4.10;;
81656;SDS011;71067;51.482;-0.580;2024-01-06T06:26:33;6.78;;;3.15;;
81656;SDS011;71067;51.482;-0.580;2024-01-06T06:28:59;9.80;;;3.78;;
81656;SDS011;71067;51.482;-0.580;2024-01-06T06:31:24;9.70;;;4.22;;
81656;SDS011;71067;51.482;-0.580;2024-01-06T06:33:49;8.20;;;3.47;;
81656;SDS011;71067;51.482;-0.580;2024-01-06T06:36:15;7.70;;;3.50;;
81656;SDS011;71067;51.482;-0.580;2024-01-06T06:38:40;8.97;;;3.93;;
81656;SDS011;71067;51.482;-0.580;2024-01-06T06:41:05;8.50;;;3.63;;
81656;SDS011;71067;51.482;-0.580;2024-01-06T06:43:31;6.68;;;3.50;;
81656;SDS011;71067;51.482;-0.580;2024-01-06T06:45:57;11.30;;;3.75;;
81656;SDS011;71067;51.482;-0.580;2024-01-06T06:48:22;9.07;;;3.70;;
81656;SDS011;71067;51.482;-0.580;2024-01-06T06:50:47;7.93;;;3.53;;
81656;SDS011;71067;51.482;-0.580;2024-01-06T06:53:13;7.22;;;3.42;;
81656;SDS011;71067;51.482;-0.580;2024-01-06T06:55:38;7.27;;;3.87;;
81656;SDS011;71067;51.482;-0.580;2024-01-06T06:58:05;6.78;;;3.63;;
81656;SDS011;71067;51.482;-0.580;2024-01-06T07:00:31;9.90;;;4.03;;
81656;SDS011;71067;51.482;-0.580;2024-01-06T07:02:56;7.13;;;3.67;;
81656;SDS011;71067;51.482;-0.580;2024-01-06T07:05:22;9.05;;;4.00;;
81656;SDS011;71067;51.482;-0.580;2024-01-06T07:07:47;10.90;;;3.90;;
81656;SDS011;71067;51.482;-0.580;2024-01-06T07:10:13;9.17;;;3.80;;
81656;SDS011;71067;51.482;-0.580;2024-01-06T07:12:38;6.28;;;3.70;;
81656;SDS011;71067;51.482;-0.580;2024-01-06T07:15:04;7.40;;;3.67;;
81656;SDS011;71067;51.482;-0.580;2024-01-06T07:17:29;7.82;;;3.40;;
81656;SDS011;71067;51.482;-0.580;2024-01-06T07:19:54;10.53;;;3.10;;
81656;SDS011;71067;51.482;-0.580;2024-01-06T07:22:20;10.20;;;3.17;;
81656;SDS011;71067;51.482;-0.580;2024-01-06T07:24:45;6.43;;;3.10;;
81656;SDS011;71067;51.482;-0.580;2024-01-06T07:27:11;8.15;;;3.75;;
81656;SDS011;71067;51.482;-0.580;2024-01-06T07:29:36;7.72;;;3.33;;
81656;SDS011;71067;51.482;-0.580;2024-01-06T07:32:02;7.47;;;3.63;;
81656;SDS011;71067;51.482;-0.580;2024-01-06T07:34:28;9.43;;;3.40;;
81656;SDS011;71067;51.482;-0.580;2024-01-06T07:36:53;6.53;;;3.35;;
81656;SDS011;71067;51.482;-0.580;2024-01-06T07:39:19;6.72;;;3.85;;
81656;SDS011;71067;51.482;-0.580;2024-01-06T07:41:44;6.77;;;3.27;;
81656;SDS011;71067;51.482;-0.580;2024-01-06T07:44:11;7.45;;;3.83;;
81656;SDS011;71067;51.482;-0.580;2024-01-06T07:46:36;5.60;;;2.90;;
81656;SDS011;71067;51.482;-0.580;2024-01-06T07:49:02;7.55;;;3.30;;
81656;SDS011;71067;51.482;-0.580;2024-01-06T07:51:27;7.22;;;3.13;;
81656;SDS011;71067;51.482;-0.580;2024-01-06T07:53:52;8.07;;;3.67;;
81656;SDS011;71067;51.482;-0.580;2024-01-06T07:56:17;8.50;;;4.13;;
81656;SDS011;71067;51.482;-0.580;2024-01-06T07:58:43;6.47;;;3.42;;
81656;SDS011;71067;51.482;-0.580;2024-01-06T08:01:08;8.68;;;3.63;;
81656;SDS011;71067;51.482;-0.580;2024-01-06T08:03:33;10.65;;;4.05;;
81656;SDS011;71067;51.482;-0.580;2024-01-06T08:06:00;8.38;;;4.40;;
81656;SDS011;71067;51.482;-0.580;2024-01-06T08:08:26;9.20;;;3.75;;
81656;SDS011;71067;51.482;-0.580;2024-01-06T08:10:52;8.07;;;3.30;;
81656;SDS011;71067;51.482;-0.580;2024-01-06T08:13:17;7.20;;;3.67;;
81656;SDS011;71067;51.482;-0.580;2024-01-06T08:15:42;7.97;;;2.97;;
81656;SDS011;71067;51.482;-0.580;2024-01-06T08:18:08;7.07;;;3.30;;
81656;SDS011;71067;51.482;-0.580;2024-01-06T08:20:33;7.57;;;3.37;;
81656;SDS011;71067;51.482;-0.580;2024-01-06T08:22:58;9.00;;;3.30;;
81656;SDS011;71067;51.482;-0.580;2024-01-06T08:25:23;9.60;;;3.57;;
81656;SDS011;71067;51.482;-0.580;2024-01-06T08:27:49;5.63;;;3.33;;
81656;SDS011;71067;51.482;-0.580;2024-01-06T08:30:14;9.47;;;3.50;;
81656;SDS011;71067;51.482;-0.580;2024-01-06T08:32:39;10.07;;;4.82;;
81656;SDS011;71067;51.482;-0.580;2024-01-06T08:35:05;7.25;;;3.38;;
81656;SDS011;71067;51.482;-0.580;2024-01-06T08:37:30;7.38;;;3.70;;
81656;SDS011;71067;51.482;-0.580;2024-01-06T08:39:56;8.07;;;3.57;;
81656;SDS011;71067;51.482;-0.580;2024-01-06T08:42:21;6.72;;;3.05;;
81656;SDS011;71067;51.482;-0.580;2024-01-06T08:44:47;6.50;;;3.35;;
81656;SDS011;71067;51.482;-0.580;2024-01-06T08:47:12;8.43;;;3.53;;
81656;SDS011;71067;51.482;-0.580;2024-01-06T08:49:37;7.70;;;3.45;;
81656;SDS011;71067;51.482;-0.580;2024-01-06T08:52:03;8.18;;;3.40;;
81656;SDS011;71067;51.482;-0.580;2024-01-06T08:54:31;9.15;;;3.40;;
81656;SDS011;71067;51.482;-0.580;2024-01-06T08:56:56;7.88;;;3.60;;
81656;SDS011;71067;51.482;-0.580;2024-01-06T08:59:22;8.82;;;3.85;;
81656;SDS011;71067;51.482;-0.580;2024-01-06T09:01:47;7.10;;;3.10;;
81656;SDS011;71067;51.482;-0.580;2024-01-06T09:04:12;8.65;;;3.10;;
81656;SDS011;71067;51.482;-0.580;2024-01-06T09:06:38;6.43;;;3.03;;
81656;SDS011;71067;51.482;-0.580;2024-01-06T09:09:03;7.30;;;2.80;;
81656;SDS011;71067;51.482;-0.580;2024-01-06T09:11:29;6.22;;;3.08;;
81656;SDS011;71067;51.482;-0.580;2024-01-06T09:13:54;5.90;;;2.83;;
81656;SDS011;71067;51.482;-0.580;2024-01-06T09:16:19;7.15;;;2.75;;
81656;SDS011;71067;51.482;-0.580;2024-01-06T09:18:45;7.30;;;2.60;;
81656;SDS011;71067;51.482;-0.580;2024-01-06T09:21:10;5.30;;;2.60;;
81656;SDS011;71067;51.482;-0.580;2024-01-06T09:23:35;5.35;;;2.60;;
81656;SDS011;71067;51.482;-0.580;2024-01-06T09:26:01;4.95;;;2.33;;
81656;SDS011;71067;51.482;-0.580;2024-01-06T09:28:26;4.95;;;2.13;;
81656;SDS011;71067;51.482;-0.580;2024-01-06T09:30:52;7.30;;;2.38;;
81656;SDS011;71067;51.482;-0.580;2024-01-06T09:33:20;5.05;;;2.50;;
81656;SDS011;71067;51.482;-0.580;2024-01-06T09:35:46;6.30;;;2.65;;
81656;SDS011;71067;51.482;-0.580;2024-01-06T09:38:12;7.45;;;2.60;;
81656;SDS011;71067;51.482;-0.580;2024-01-06T09:40:41;5.03;;;2.90;;
81656;SDS011;71067;51.482;-0.580;2024-01-06T09:43:08;4.75;;;2.35;;
81656;SDS011;71067;51.482;-0.580;2024-01-06T09:45:34;4.22;;;2.13;;
81656;SDS011;71067;51.482;-0.580;2024-01-06T09:47:59;6.93;;;2.38;;
81656;SDS011;71067;51.482;-0.580;2024-01-06T09:50:40;3.72;;;1.80;;
81656;SDS011;71067;51.482;-0.580;2024-01-06T09:53:06;4.28;;;2.30;;
81656;SDS011;71067;51.482;-0.580;2024-01-06T09:55:39;5.07;;;1.98;;
81656;SDS011;71067;51.482;-0.580;2024-01-06T09:58:04;4.25;;;2.00;;
81656;SDS011;71067;51.482;-0.580;2024-01-06T10:00:31;3.75;;;1.77;;
81656;SDS011;71067;51.482;-0.580;2024-01-06T10:02:56;4.57;;;2.10;;
81656;SDS011;71067;51.482;-0.580;2024-01-06T10:05:23;5.10;;;1.77;;
81656;SDS011;71067;51.482;-0.580;2024-01-06T10:07:48;7.32;;;2.47;;
81656;SDS011;71067;51.482;-0.580;2024-01-06T10:10:14;5.15;;;1.90;;
81656;SDS011;71067;51.482;-0.580;2024-01-06T10:12:39;4.22;;;2.30;;
81656;SDS011;71067;51.482;-0.580;2024-01-06T10:15:06;5.30;;;1.95;;
81656;SDS011;71067;51.482;-0.580;2024-01-06T10:17:33;4.13;;;1.80;;
81656;SDS011;71067;51.482;-0.580;2024-01-06T10:20:01;5.43;;;2.22;;
81656;SDS011;71067;51.482;-0.580;2024-01-06T10:22:28;4.95;;;2.10;;
81656;SDS011;71067;51.482;-0.580;2024-01-06T10:24:54;6.05;;;2.20;;
81656;SDS011;71067;51.482;-0.580;2024-01-06T10:27:20;5.28;;;2.30;;
81656;SDS011;71067;51.482;-0.580;2024-01-06T10:29:46;7.57;;;2.75;;
81656;SDS011;71067;51.482;-0.580;2024-01-06T10:32:12;6.13;;;2.87;;
81656;SDS011;71067;51.482;-0.580;2024-01-06T10:34:37;5.90;;;2.80;;
81656;SDS011;71067;51.482;-0.580;2024-01-06T10:37:03;6.63;;;2.78;;
81656;SDS011;71067;51.482;-0.580;2024-01-06T10:39:28;7.63;;;3.20;;
81656;SDS011;71067;51.482;-0.580;2024-01-06T10:41:54;9.23;;;3.72;;
81656;SDS011;71067;51.482;-0.580;2024-01-06T10:44:20;9.30;;;3.92;;
81656;SDS011;71067;51.482;-0.580;2024-01-06T10:46:46;7.15;;;3.58;;
81656;SDS011;71067;51.482;-0.580;2024-01-06T10:49:14;7.13;;;3.70;;
81656;SDS011;71067;51.482;-0.580;2024-01-06T10:51:40;8.45;;;3.30;;
81656;SDS011;71067;51.482;-0.580;2024-01-06T10:54:06;7.05;;;3.38;;
81656;SDS011;71067;51.482;-0.580;2024-01-06T10:56:31;8.95;;;3.28;;
81656;SDS011;71067;51.482;-0.580;2024-01-06T10:59:01;6.32;;;3.45;;
81656;SDS011;71067;51.482;-0.580;2024-01-06T11:01:28;7.85;;;3.88;;
81656;SDS011;71067;51.482;-0.580;2024-01-06T11:03:54;7.75;;;3.08;;
81656;SDS011;71067;51.482;-0.580;2024-01-06T11:06:20;9.43;;;3.60;;
81656;SDS011;71067;51.482;-0.580;2024-01-06T11:08:48;8.50;;;3.60;;
81656;SDS011;71067;51.482;-0.580;2024-01-06T11:11:22;9.35;;;4.53;;
81656;SDS011;71067;51.482;-0.580;2024-01-06T11:13:49;9.35;;;4.00;;
81656;SDS011;71067;51.482;-0.580;2024-01-06T11:16:33;7.93;;;3.75;;
81656;SDS011;71067;51.482;-0.580;2024-01-06T11:18:59;7.78;;;3.50;;
81656;SDS011;71067;51.482;-0.580;2024-01-06T11:21:25;6.93;;;2.97;;
81656;SDS011;71067;51.482;-0.580;2024-01-06T11:26:31;7.93;;;3.72;;
81656;SDS011;71067;51.482;-0.580;2024-01-06T11:28:56;8.37;;;3.63;;
81656;SDS011;71067;51.482;-0.580;2024-01-06T11:31:23;7.63;;;3.00;;
81656;SDS011;71067;51.482;-0.580;2024-01-06T11:33:49;7.43;;;3.30;;
81656;SDS011;71067;51.482;-0.580;2024-01-06T11:36:16;7.45;;;3.28;;
81656;SDS011;71067;51.482;-0.580;2024-01-06T11:38:41;6.32;;;2.63;;
81656;SDS011;71067;51.482;-0.580;2024-01-06T11:41:13;5.72;;;2.47;;
81656;SDS011;71067;51.482;-0.580;2024-01-06T11:44:21;7.00;;;2.47;;
81656;SDS011;71067;51.482;-0.580;2024-01-06T11:46:47;4.95;;;2.40;;
81656;SDS011;71067;51.482;-0.580;2024-01-06T11:49:14;4.90;;;2.20;;
81656;SDS011;71067;51.482;-0.580;2024-01-06T11:51:41;4.35;;;2.00;;
81656;SDS011;71067;51.482;-0.580;2024-01-06T11:54:06;4.97;;;2.17;;
81656;SDS011;71067;51.482;-0.580;2024-01-06T11:56:31;5.40;;;2.28;;
81656;SDS011;71067;51.482;-0.580;2024-01-06T11:58:57;5.33;;;2.33;;
81656;SDS011;71067;51.482;-0.580;2024-01-06T12:01:22;4.38;;;1.52;;
81656;SDS011;71067;51.482;-0.580;2024-01-06T12:03:53;6.15;;;2.05;;
81656;SDS011;71067;51.482;-0.580;2024-01-06T12:06:20;6.05;;;1.77;;
81656;SDS011;71067;51.482;-0.580;2024-01-06T12:08:48;2.63;;;1.20;;
81656;SDS011;71067;51.482;-0.580;2024-01-06T12:11:16;3.50;;;1.60;;
81656;SDS011;71067;51.482;-0.580;2024-01-06T12:13:43;3.28;;;1.67;;
81656;SDS011;71067;51.482;-0.580;2024-01-06T12:16:09;3.38;;;1.40;;
81656;SDS011;71067;51.482;-0.580;2024-01-06T12:18:34;4.30;;;1.60;;
81656;SDS011;71067;51.482;-0.580;2024-01-06T12:20:59;4.70;;;1.70;;
81656;SDS011;71067;51.482;-0.580;2024-01-06T12:23:25;4.35;;;1.92;;
81656;SDS011;71067;51.482;-0.580;2024-01-06T12:25:52;4.65;;;2.15;;
81656;SDS011;71067;51.482;-0.580;2024-01-06T12:28:18;4.20;;;2.08;;
81656;SDS011;71067;51.482;-0.580;2024-01-06T12:30:44;4.38;;;2.20;;
81656;SDS011;71067;51.482;-0.580;2024-01-06T12:33:09;4.27;;;2.03;;
81656;SDS011;71067;51.482;-0.580;2024-01-06T12:35:35;3.78;;;2.10;;
81656;SDS011;71067;51.482;-0.580;2024-01-06T12:38:01;4.93;;;2.20;;
81656;SDS011;71067;51.482;-0.580;2024-01-06T12:40:30;4.30;;;2.33;;
81656;SDS011;71067;51.482;-0.580;2024-01-06T12:42:55;4.87;;;2.30;;
81656;SDS011;71067;51.482;-0.580;2024-01-06T12:45:21;6.27;;;2.87;;
81656;SDS011;71067;51.482;-0.580;2024-01-06T12:47:46;6.57;;;3.40;;
81656;SDS011;71067;51.482;-0.580;2024-01-06T12:50:11;7.23;;;3.43;;
81656;SDS011;71067;51.482;-0.580;2024-01-06T12:52:37;7.82;;;3.67;;
81656;SDS011;71067;51.482;-0.580;2024-01-06T12:55:04;4.88;;;3.10;;
81656;SDS011;71067;51.482;-0.580;2024-01-06T12:57:30;5.05;;;3.10;;
81656;SDS011;71067;51.482;-0.580;2024-01-06T12:59:56;6.05;;;3.42;;
81656;SDS011;71067;51.482;-0.580;2024-01-06T13:02:21;6.87;;;3.07;;
81656;SDS011;71067;51.482;-0.580;2024-01-06T13:04:46;6.27;;;2.77;;
81656;SDS011;71067;51.482;-0.580;2024-01-06T13:07:11;4.57;;;2.77;;
81656;SDS011;71067;51.482;-0.580;2024-01-06T13:09:37;5.78;;;2.70;;
81656;SDS011;71067;51.482;-0.580;2024-01-06T13:12:03;5.25;;;3.03;;
81656;SDS011;71067;51.482;-0.580;2024-01-06T13:14:29;6.63;;;2.97;;
81656;SDS011;71067;51.482;-0.580;2024-01-06T13:16:56;5.90;;;3.10;;
81656;SDS011;71067;51.482;-0.580;2024-01-06T13:19:22;6.13;;;3.22;;
81656;SDS011;71067;51.482;-0.580;2024-01-06T13:21:48;5.20;;;3.22;;
81656;SDS011;71067;51.482;-0.580;2024-01-06T13:24:13;6.47;;;2.95;;
81656;SDS011;71067;51.482;-0.580;2024-01-06T13:26:39;4.90;;;2.72;;
81656;SDS011;71067;51.482;-0.580;2024-01-06T13:29:04;6.20;;;2.78;;
81656;SDS011;71067;51.482;-0.580;2024-01-06T13:31:29;6.20;;;2.80;;
81656;SDS011;71067;51.482;-0.580;2024-01-06T13:33:56;5.85;;;3.17;;
81656;SDS011;71067;51.482;-0.580;2024-01-06T13:36:21;8.00;;;3.90;;
81656;SDS011;71067;51.482;-0.580;2024-01-06T13:38:47;5.60;;;3.22;;
81656;SDS011;71067;51.482;-0.580;2024-01-06T13:41:13;6.45;;;3.33;;
81656;SDS011;71067;51.482;-0.580;2024-01-06T13:43:39;8.05;;;3.92;;
81656;SDS011;71067;51.482;-0.580;2024-01-06T13:46:04;6.18;;;3.50;;
81656;SDS011;71067;51.482;-0.580;2024-01-06T13:48:29;6.40;;;3.80;;
81656;SDS011;71067;51.482;-0.580;2024-01-06T13:50:55;6.30;;;4.07;;
81656;SDS011;71067;51.482;-0.580;2024-01-06T13:53:22;7.68;;;4.10;;
81656;SDS011;71067;51.482;-0.580;2024-01-06T13:55:47;7.13;;;4.07;;
81656;SDS011;71067;51.482;-0.580;2024-01-06T13:58:12;7.63;;;3.72;;
81656;SDS011;71067;51.482;-0.580;2024-01-06T14:00:38;8.77;;;4.10;;
81656;SDS011;71067;51.482;-0.580;2024-01-06T14:03:03;10.35;;;4.60;;
81656;SDS011;71067;51.482;-0.580;2024-01-06T14:05:29;9.13;;;5.28;;
81656;SDS011;71067;51.482;-0.580;2024-01-06T14:07:55;9.95;;;5.10;;
81656;SDS011;71067;51.482;-0.580;2024-01-06T14:10:21;11.23;;;5.97;;
81656;SDS011;71067;51.482;-0.580;2024-01-06T14:12:46;9.45;;;5.18;;
81656;SDS011;71067;51.482;-0.580;2024-01-06T14:15:11;10.00;;;4.90;;
81656;SDS011;71067;51.482;-0.580;2024-01-06T14:17:37;6.32;;;3.92;;
81656;SDS011;71067;51.482;-0.580;2024-01-06T14:20:03;7.45;;;4.00;;